createdAt,value
2022-10-29T00:00:33.392Z,14.8
2022-10-29T00:10:35.315Z,14.8
2022-10-29T00:20:36.989Z,14.6
2022-10-29T00:30:39.557Z,14.6
2022-10-29T00:40:41.708Z,14.6
2022-10-29T00:50:43.908Z,14.6
2022-10-29T01:00:45.863Z,14.5
2022-10-29T01:10:48.196Z,14.4
2022-10-29T01:20:50.806Z,14.3
2022-10-29T01:30:53.141Z,14.1
2022-10-29T01:40:55.503Z,13.9
2022-10-29T01:50:57.705Z,13.7
2022-10-29T02:01:00.174Z,13.7
2022-10-29T02:11:02.151Z,13.8
2022-10-29T02:21:03.612Z,13.5
2022-10-29T02:31:06.081Z,13.3
2022-10-29T02:41:08.093Z,13.1
2022-10-29T02:51:09.978Z,12.9
2022-10-29T03:01:12.499Z,13
2022-10-29T03:11:14.864Z,13.2
2022-10-29T03:21:16.501Z,13
2022-10-29T03:31:18.906Z,12.9
2022-10-29T03:41:21.948Z,12.9
2022-10-29T03:51:24.853Z,12.6
2022-10-29T04:01:25.580Z,12.5
2022-10-29T04:11:27.276Z,12.3
2022-10-29T04:23:08.270Z,12.8
2022-10-29T04:31:31.483Z,13
2022-10-29T04:41:37.214Z,12.9
2022-10-29T04:51:36.230Z,12.9
2022-10-29T05:01:38.558Z,12.8
2022-10-29T05:11:41.075Z,12.7
2022-10-29T05:21:43.085Z,12.6
2022-10-29T05:31:45.039Z,12.7
2022-10-29T05:41:47.180Z,12.7
2022-10-29T05:51:48.923Z,12.7
2022-10-29T06:01:51.495Z,12.7
2022-10-29T06:11:53.169Z,12.6
2022-10-29T06:31:58.173Z,12.7
2022-10-29T06:42:00.596Z,12.8
2022-10-29T06:52:04.996Z,12.7
2022-10-29T07:02:04.409Z,13
2022-10-29T07:12:07.332Z,13.2
2022-10-29T07:22:08.497Z,13.3
2022-10-29T07:32:10.304Z,13.5
2022-10-29T07:42:12.769Z,13.8
2022-10-29T07:52:15.266Z,14.1
2022-10-29T08:02:17.614Z,14.6
2022-10-29T08:22:22.768Z,15.6
2022-10-29T08:32:24.338Z,16.3
2022-10-29T08:42:26.380Z,16.7
2022-10-29T08:52:28.223Z,17
2022-10-29T09:02:30.079Z,17.7
2022-10-29T09:12:32.264Z,17.2
2022-10-29T09:22:34.568Z,17.1
2022-10-29T09:32:36.282Z,17.5
2022-10-29T09:42:38.585Z,17.5
2022-10-29T09:52:40.409Z,18
2022-10-29T10:02:43.115Z,18.4
2022-10-29T10:12:45.557Z,18.3
2022-10-29T10:32:50.589Z,19.1
2022-10-29T11:02:58.023Z,19.9
2022-10-29T11:13:00.040Z,21.1
2022-10-29T11:23:01.726Z,20.8
2022-10-29T11:33:04.187Z,20.9
2022-10-29T11:53:08.388Z,21.8
2022-10-29T12:03:10.918Z,22.1
2022-10-29T12:13:13.189Z,22.2
2022-10-29T12:23:16.079Z,22.5
2022-10-29T12:33:25.050Z,22.7
2022-10-29T12:43:27.218Z,22.4
2022-10-29T13:03:31.759Z,22.4
2022-10-29T13:13:34.268Z,22.4
2022-10-29T13:43:40.510Z,22.1
2022-10-29T14:33:51.997Z,22.2
2022-10-29T15:34:04.917Z,20.7
2022-10-29T15:44:07.358Z,20.5
2022-10-29T15:54:09.983Z,20.4
2022-10-29T16:04:11.967Z,19.6
2022-10-29T16:14:14.366Z,19.5
2022-10-29T16:34:19.499Z,18.6
2022-10-29T16:44:20.808Z,18.5
2022-10-29T16:54:22.560Z,18
2022-10-29T17:04:24.736Z,17.9
2022-10-29T17:14:26.907Z,18
2022-10-29T17:24:29.197Z,18.3
2022-10-29T17:34:31.297Z,18.3
2022-10-29T17:54:35.522Z,18.5
2022-10-29T18:04:37.524Z,18.3
2022-10-29T18:14:39.917Z,18.1
2022-10-29T18:24:42.141Z,18.1
2022-10-29T18:34:44.083Z,17.9
2022-10-29T18:44:46.687Z,17.8
2022-10-29T18:54:49.152Z,17.7
2022-10-29T19:04:50.964Z,17.5
2022-10-29T19:14:53.594Z,17.3
2022-10-29T19:24:55.836Z,17.2
2022-10-29T19:34:57.911Z,17.5
2022-10-29T19:45:00.499Z,17.4
2022-10-29T19:55:03.090Z,17.2
2022-10-29T20:05:05.565Z,17
2022-10-29T20:15:07.946Z,16.7
2022-10-29T20:25:10.070Z,16.8
2022-10-29T20:35:12.038Z,16.7
2022-10-29T20:45:13.704Z,16.5
2022-10-29T20:55:16.064Z,16.4
2022-10-29T21:05:17.883Z,16.3
2022-10-29T21:15:20.092Z,16.4
2022-10-29T21:25:22.644Z,16.2
2022-10-29T21:35:24.461Z,16.4
2022-10-29T21:45:26.137Z,16.1
2022-10-29T21:55:27.895Z,15.6
2022-10-29T22:05:30.441Z,15.2
2022-10-29T22:15:32.616Z,15.3
2022-10-29T22:25:34.347Z,15
2022-10-29T22:35:36.042Z,15.1
2022-10-29T22:45:37.843Z,15.3
2022-10-29T22:55:39.721Z,15.1
2022-10-29T23:05:41.783Z,15.1
2022-10-29T23:15:44.070Z,15.2
2022-10-29T23:35:48.302Z,14.9
2022-10-29T23:45:50.411Z,15
2022-10-29T23:55:52.594Z,14.8
